Time;durP1;ratioP1;P1;durP2;ratioP2;P2;SDS_P1;SDS_P2;PMS_P1;PMS_P2;Temp;Humidity;BMP_temperature;BMP_pressure;BME280_temperature;BME280_humidity;BME280_pressure;Samples;Min_cycle;Max_cycle;Signal;HPM_P1;HPM_P2
2022/02/20 00:00:49;;;;;;;;;;;3.80;92.00;;;;;;5078824;28;19915;-74
2022/02/20 00:03:15;;;;;;;;;;;3.70;92.30;;;;;;5071692;28;19915;-76
2022/02/20 00:05:40;;;;;;;;;;;3.70;92.50;;;;;;5071976;28;19916;-76
2022/02/20 00:08:06;;;;;;;;;;;3.70;92.90;;;;;;5071864;28;19909;-76
2022/02/20 00:10:31;;;;;;;;;;;3.70;93.00;;;;;;5071895;28;19908;-76
2022/02/20 00:12:57;;;;;;;;;;;3.60;93.30;;;;;;5070159;28;19958;-76
2022/02/20 00:15:24;;;;;;;;;;;3.50;93.60;;;;;;5071494;28;19999;-76
2022/02/20 00:17:50;;;;;;;;;;;3.50;94.00;;;;;;5071750;28;20423;-75
2022/02/20 00:20:16;;;;;;;;;;;3.50;94.10;;;;;;5071803;28;20351;-75
2022/02/20 00:22:42;;;;;;;;;;;3.50;94.50;;;;;;5071047;28;19995;-76
2022/02/20 00:25:08;;;;;;;;;;;3.40;94.90;;;;;;5071184;28;19908;-74
2022/02/20 00:27:33;;;;;;;;;;;3.40;95.20;;;;;;5070059;28;20414;-76
2022/02/20 00:29:59;;;;;;;;;;;3.30;95.50;;;;;;5071584;28;19912;-75
2022/02/20 00:32:25;;;;;;;;;;;3.30;95.70;;;;;;5071354;28;19913;-75
2022/02/20 00:34:50;;;;;;;;;;;3.40;95.60;;;;;;5070280;28;19965;-75
2022/02/20 00:37:16;;;;;;;;;;;3.30;95.90;;;;;;5071509;28;19909;-75
2022/02/20 00:39:41;;;;;;;;;;;3.30;95.90;;;;;;5071514;28;20003;-76
2022/02/20 00:42:07;;;;;;;;;;;3.30;96.20;;;;;;5069866;28;19912;-75
2022/02/20 00:44:32;;;;;;;;;;;3.30;96.40;;;;;;5071139;28;19943;-75
2022/02/20 00:46:58;;;;;;;;;;;3.30;96.40;;;;;;5071496;28;20380;-74
2022/02/20 00:49:23;;;;;;;;;;;3.30;96.70;;;;;;5071409;28;20004;-76
2022/02/20 00:51:49;;;;;;;;;;;3.30;96.70;;;;;;5066302;28;19913;-76
2022/02/20 00:54:14;;;;;;;;;;;3.30;97.20;;;;;;5070615;28;19913;-75
2022/02/20 00:56:40;;;;;;;;;;;3.20;97.30;;;;;;5069775;28;19916;-76
2022/02/20 00:59:06;;;;;;;;;;;3.20;97.50;;;;;;5070987;28;20376;-76
2022/02/20 01:01:32;;;;;;;;;;;3.30;97.60;;;;;;5071141;28;19947;-76
2022/02/20 01:03:57;;;;;;;;;;;3.20;97.80;;;;;;5070976;28;20319;-75
2022/02/20 01:06:23;;;;;;;;;;;3.20;98.10;;;;;;5071272;28;19915;-75
2022/02/20 01:08:49;;;;;;;;;;;3.10;98.30;;;;;;5069658;28;20371;-76
2022/02/20 01:11:14;;;;;;;;;;;3.10;98.60;;;;;;5070721;28;19916;-74
2022/02/20 01:13:40;;;;;;;;;;;3.10;98.40;;;;;;5070859;28;19992;-76
2022/02/20 01:16:06;;;;;;;;;;;3.10;98.50;;;;;;5071070;28;19917;-76
2022/02/20 01:18:32;;;;;;;;;;;3.10;98.70;;;;;;5069771;28;19909;-76
2022/02/20 01:20:57;;;;;;;;;;;3.10;98.90;;;;;;5062915;28;20384;-75
2022/02/20 01:23:23;;;;;;;;;;;3.10;99.10;;;;;;5070373;28;19909;-74
2022/02/20 01:25:48;;;;;;;;;;;3.10;99.20;;;;;;5070845;28;19909;-76
2022/02/20 01:28:14;;;;;;;;;;;3.10;99.20;;;;;;5070847;28;19908;-76
2022/02/20 01:30:39;;;;;;;;;;;3.10;99.30;;;;;;5070733;28;20507;-75
2022/02/20 01:33:05;;;;;;;;;;;3.20;99.20;;;;;;5070508;28;19954;-74
2022/02/20 01:35:30;;;;;;;;;;;3.20;99.30;;;;;;5071910;28;20336;-76
2022/02/20 01:37:56;;;;;;;;;;;3.20;99.40;;;;;;5074818;28;19913;-76
2022/02/20 01:40:21;;;;;;;;;;;3.20;99.50;;;;;;5074659;28;19909;-76
2022/02/20 01:42:47;;;;;;;;;;;3.20;99.70;;;;;;5074494;28;19915;-76
2022/02/20 01:45:14;;;;;;;;;;;3.10;99.80;;;;;;5074643;28;20397;-76
2022/02/20 01:47:40;;;;;;;;;;;3.10;99.80;;;;;;5074655;28;19916;-74
2022/02/20 01:50:06;;;;;;;;;;;3.20;99.90;;;;;;5074163;28;19909;-76
2022/02/20 01:52:32;;;;;;;;;;;3.20;99.90;;;;;;5079706;28;20253;-75
2022/02/20 01:54:57;;;;;;;;;;;3.20;99.90;;;;;;5074101;28;19915;-76
2022/02/20 01:57:23;;;;;;;;;;;3.20;99.90;;;;;;5074339;28;19944;-76
2022/02/20 01:59:49;;;;;;;;;;;3.20;99.80;;;;;;5074455;28;19909;-76
2022/02/20 02:02:19;;;;;;;;;;;3.30;99.70;;;;;;5074258;28;19916;-76
2022/02/20 02:05:00;;;;;;;;;;;3.30;99.80;;;;;;5070901;28;19912;-76
2022/02/20 02:07:27;;;;;;;;;;;3.30;99.70;;;;;;5074505;28;19995;-74
2022/02/20 02:09:52;;;;;;;;;;;3.30;99.60;;;;;;5074102;28;19966;-74
2022/02/20 02:12:18;;;;;;;;;;;3.40;99.40;;;;;;5073822;28;19916;-76
2022/02/20 02:15:00;;;;;;;;;;;3.50;99.50;;;;;;5074055;28;19908;-76
2022/02/20 02:17:26;;;;;;;;;;;3.50;99.50;;;;;;5072562;28;19916;-76
2022/02/20 02:19:51;;;;;;;;;;;3.50;99.50;;;;;;5073103;28;20266;-76
2022/02/20 02:22:18;;;;;;;;;;;3.50;99.40;;;;;;5072394;28;19912;-76
2022/02/20 02:24:44;;;;;;;;;;;3.50;99.50;;;;;;5073571;28;19916;-76
2022/02/20 02:27:11;;;;;;;;;;;3.60;99.60;;;;;;5073901;28;20277;-76
2022/02/20 02:29:36;;;;;;;;;;;3.60;99.50;;;;;;5073922;28;19934;-74
2022/02/20 02:32:02;;;;;;;;;;;3.60;99.40;;;;;;5073587;28;19913;-76
2022/02/20 02:34:28;;;;;;;;;;;3.70;99.40;;;;;;5073398;28;19916;-75
2022/02/20 02:36:53;;;;;;;;;;;3.70;99.30;;;;;;5073657;28;19966;-76
2022/02/20 02:39:19;;;;;;;;;;;3.60;99.60;;;;;;5073652;28;20327;-74
2022/02/20 02:41:44;;;;;;;;;;;3.70;99.40;;;;;;5073543;28;20369;-76
2022/02/20 02:44:10;;;;;;;;;;;3.70;99.40;;;;;;5073423;28;19920;-75
2022/02/20 02:46:35;;;;;;;;;;;3.70;99.50;;;;;;5073201;28;19908;-76
2022/02/20 02:49:01;;;;;;;;;;;3.70;99.30;;;;;;5072131;28;19936;-74
2022/02/20 02:51:27;;;;;;;;;;;3.80;99.40;;;;;;5067913;28;20002;-74
2022/02/20 02:53:54;;;;;;;;;;;3.80;99.40;;;;;;5071527;28;20381;-76
2022/02/20 02:56:20;;;;;;;;;;;3.80;99.30;;;;;;5073289;28;19915;-76
2022/02/20 02:58:46;;;;;;;;;;;3.80;99.30;;;;;;5073527;28;19909;-76
2022/02/20 03:01:12;;;;;;;;;;;3.80;99.40;;;;;;5073261;28;20016;-74
2022/02/20 03:03:37;;;;;;;;;;;3.80;99.50;;;;;;5072740;28;19916;-74
2022/02/20 03:06:09;;;;;;;;;;;3.80;99.70;;;;;;5073300;28;19913;-76
2022/02/20 03:08:35;;;;;;;;;;;3.80;99.70;;;;;;5072778;28;20431;-76
2022/02/20 03:11:01;;;;;;;;;;;3.80;99.70;;;;;;5072634;28;19916;-76
2022/02/20 03:13:26;;;;;;;;;;;3.80;99.50;;;;;;5072783;28;19915;-76
2022/02/20 03:15:52;;;;;;;;;;;3.80;99.60;;;;;;5072837;28;19966;-75
2022/02/20 03:18:18;;;;;;;;;;;3.90;99.60;;;;;;5071474;28;19994;-75
2022/02/20 03:20:43;;;;;;;;;;;3.90;99.50;;;;;;5072730;28;19979;-76
2022/02/20 03:23:09;;;;;;;;;;;3.80;99.70;;;;;;5072143;28;19995;-76
2022/02/20 03:25:34;;;;;;;;;;;3.80;99.90;;;;;;5072744;28;20388;-76
2022/02/20 03:28:00;;;;;;;;;;;3.80;99.90;;;;;;5072931;28;19912;-75
2022/02/20 03:30:26;;;;;;;;;;;3.80;99.90;;;;;;5071362;28;20342;-74
2022/02/20 03:32:51;;;;;;;;;;;3.80;99.90;;;;;;5072387;28;19908;-76
2022/02/20 03:35:17;;;;;;;;;;;3.80;99.90;;;;;;5072242;28;19919;-76
2022/02/20 03:37:42;;;;;;;;;;;3.90;99.90;;;;;;5072390;28;19970;-76
2022/02/20 03:40:08;;;;;;;;;;;3.90;99.90;;;;;;5072681;28;19948;-76
2022/02/20 03:42:34;;;;;;;;;;;3.90;99.90;;;;;;5072327;28;20353;-76
2022/02/20 03:44:59;;;;;;;;;;;3.90;99.90;;;;;;5070822;28;20384;-76
2022/02/20 03:47:25;;;;;;;;;;;3.80;99.90;;;;;;5070852;28;19908;-76
2022/02/20 03:49:50;;;;;;;;;;;3.80;99.90;;;;;;5070929;28;19908;-75
2022/02/20 03:52:16;;;;;;;;;;;3.80;99.90;;;;;;5068670;28;19939;-76
2022/02/20 03:54:41;;;;;;;;;;;3.80;99.90;;;;;;5071911;28;19935;-76
2022/02/20 03:57:07;;;;;;;;;;;3.80;99.90;;;;;;5070691;28;19920;-76
2022/02/20 03:59:32;;;;;;;;;;;3.80;99.90;;;;;;5071392;28;19908;-74
2022/02/20 04:01:58;;;;;;;;;;;3.80;99.90;;;;;;5071697;28;19909;-76
2022/02/20 04:04:24;;;;;;;;;;;3.80;99.90;;;;;;5072076;28;19916;-75
2022/02/20 04:06:51;;;;;;;;;;;3.80;99.90;;;;;;5072043;28;19928;-76
2022/02/20 04:09:17;;;;;;;;;;;3.80;99.90;;;;;;5071814;28;19912;-74
2022/02/20 04:11:42;;;;;;;;;;;3.80;99.90;;;;;;5071728;28;19912;-76
2022/02/20 04:14:08;;;;;;;;;;;3.70;99.90;;;;;;5071548;28;19915;-76
2022/02/20 04:16:33;;;;;;;;;;;3.70;99.90;;;;;;5071265;28;20017;-76
2022/02/20 04:18:59;;;;;;;;;;;3.70;99.90;;;;;;5071659;28;19916;-74
2022/02/20 04:21:24;;;;;;;;;;;3.70;99.90;;;;;;5065665;28;20393;-76
2022/02/20 04:23:50;;;;;;;;;;;3.70;99.90;;;;;;5071245;28;19912;-76
2022/02/20 04:26:15;;;;;;;;;;;3.60;99.90;;;;;;5071534;28;20296;-76
2022/02/20 04:28:41;;;;;;;;;;;3.60;99.90;;;;;;5070204;28;19916;-76
2022/02/20 04:31:06;;;;;;;;;;;3.50;99.90;;;;;;5071315;28;19919;-75
2022/02/20 04:33:32;;;;;;;;;;;3.50;99.90;;;;;;5069761;28;19966;-76
2022/02/20 04:35:57;;;;;;;;;;;3.50;99.90;;;;;;5071401;28;20018;-74
2022/02/20 04:38:23;;;;;;;;;;;3.50;99.90;;;;;;5071182;28;20419;-76
2022/02/20 04:40:48;;;;;;;;;;;3.50;99.90;;;;;;5071372;28;19916;-76
2022/02/20 04:43:14;;;;;;;;;;;3.50;99.90;;;;;;5071024;28;19916;-76
2022/02/20 04:45:39;;;;;;;;;;;3.40;99.90;;;;;;5069991;28;19935;-77
2022/02/20 04:48:05;;;;;;;;;;;3.40;99.90;;;;;;5071220;28;19918;-76
2022/02/20 04:50:30;;;;;;;;;;;3.40;99.90;;;;;;5071489;28;19912;-76
2022/02/20 04:52:56;;;;;;;;;;;3.40;99.90;;;;;;5070666;28;19909;-75
2022/02/20 04:55:22;;;;;;;;;;;3.40;99.90;;;;;;5070952;28;20003;-76
2022/02/20 04:57:47;;;;;;;;;;;3.50;99.90;;;;;;5071150;28;19908;-76
2022/02/20 05:00:13;;;;;;;;;;;3.50;99.90;;;;;;5070963;28;20315;-76
2022/02/20 05:02:38;;;;;;;;;;;3.50;99.90;;;;;;5070976;28;19918;-76
2022/02/20 05:05:04;;;;;;;;;;;3.40;99.90;;;;;;5070981;28;19913;-74
2022/02/20 05:07:30;;;;;;;;;;;3.40;99.90;;;;;;5070998;28;20411;-75
2022/02/20 05:09:56;;;;;;;;;;;3.40;99.90;;;;;;5069678;28;19909;-76
2022/02/20 05:12:22;;;;;;;;;;;3.40;99.90;;;;;;5069551;28;19946;-76
2022/02/20 05:14:47;;;;;;;;;;;3.40;99.90;;;;;;5071174;28;19909;-75
2022/02/20 05:17:14;;;;;;;;;;;3.40;99.90;;;;;;5070761;28;19920;-75
2022/02/20 05:19:39;;;;;;;;;;;3.40;99.90;;;;;;5069609;28;19991;-76
2022/02/20 05:22:05;;;;;;;;;;;3.40;99.90;;;;;;5066579;28;20007;-76
2022/02/20 05:24:30;;;;;;;;;;;3.30;99.90;;;;;;5070582;28;19913;-76
2022/02/20 05:26:56;;;;;;;;;;;3.30;99.90;;;;;;5069564;28;19915;-76
2022/02/20 05:29:21;;;;;;;;;;;3.30;99.90;;;;;;5070812;28;19974;-76
2022/02/20 05:31:47;;;;;;;;;;;3.30;99.90;;;;;;5069306;28;20011;-75
2022/02/20 05:34:12;;;;;;;;;;;3.40;99.90;;;;;;5070672;28;20093;-76
2022/02/20 05:36:37;;;;;;;;;;;3.40;99.90;;;;;;5070829;28;19916;-76
2022/02/20 05:39:03;;;;;;;;;;;3.40;99.90;;;;;;5070723;28;20054;-75
2022/02/20 05:41:29;;;;;;;;;;;3.40;99.90;;;;;;5070496;28;20316;-76
2022/02/20 05:43:54;;;;;;;;;;;3.50;99.90;;;;;;5070491;28;19908;-76
2022/02/20 05:46:20;;;;;;;;;;;3.50;99.90;;;;;;5070735;28;19919;-75
2022/02/20 05:48:45;;;;;;;;;;;3.50;99.90;;;;;;5070586;28;20419;-75
2022/02/20 05:51:11;;;;;;;;;;;3.60;99.90;;;;;;5068500;28;20288;-76
2022/02/20 05:53:36;;;;;;;;;;;3.60;99.90;;;;;;5071722;28;19955;-76
2022/02/20 05:56:02;;;;;;;;;;;3.70;99.90;;;;;;5069349;28;19939;-76
2022/02/20 05:58:28;;;;;;;;;;;3.60;99.90;;;;;;5070489;28;19912;-76
2022/02/20 06:00:53;;;;;;;;;;;3.50;99.90;;;;;;5070530;28;20293;-76
2022/02/20 06:03:19;;;;;;;;;;;3.50;99.90;;;;;;5070219;28;20005;-76
2022/02/20 06:05:44;;;;;;;;;;;3.60;99.90;;;;;;5069157;28;20319;-76
2022/02/20 06:08:10;;;;;;;;;;;3.60;99.90;;;;;;5070446;28;19909;-74
2022/02/20 06:10:36;;;;;;;;;;;3.60;99.90;;;;;;5070510;28;19908;-75
2022/02/20 06:13:03;;;;;;;;;;;3.70;99.90;;;;;;5072608;28;19947;-74
2022/02/20 06:15:28;;;;;;;;;;;3.70;99.90;;;;;;5073094;28;19916;-75
2022/02/20 06:17:54;;;;;;;;;;;3.60;99.90;;;;;;5071644;28;19933;-74
2022/02/20 06:20:19;;;;;;;;;;;3.70;99.90;;;;;;5069434;28;19908;-76
2022/02/20 06:22:45;;;;;;;;;;;3.70;99.90;;;;;;5074409;28;19909;-76
2022/02/20 06:25:10;;;;;;;;;;;3.60;99.90;;;;;;5077001;28;19952;-75
2022/02/20 06:27:36;;;;;;;;;;;3.70;99.90;;;;;;5091621;28;19959;-74
2022/02/20 06:30:02;;;;;;;;;;;3.70;99.90;;;;;;5076657;28;19995;-76
2022/02/20 06:32:28;;;;;;;;;;;3.70;99.90;;;;;;5073452;28;20016;-77
2022/02/20 06:34:53;;;;;;;;;;;3.70;99.90;;;;;;5073433;28;19999;-76
2022/02/20 06:37:19;;;;;;;;;;;3.70;99.90;;;;;;5072295;28;19912;-76
2022/02/20 06:39:44;;;;;;;;;;;3.70;99.90;;;;;;5073768;28;19909;-76
2022/02/20 06:42:17;;;;;;;;;;;3.70;99.90;;;;;;5072274;28;20015;-76
2022/02/20 06:44:43;;;;;;;;;;;3.70;99.90;;;;;;5073182;28;20364;-75
2022/02/20 06:47:08;;;;;;;;;;;3.80;99.90;;;;;;5073507;28;19961;-76
2022/02/20 06:49:34;;;;;;;;;;;3.90;99.90;;;;;;5073392;28;20423;-76
2022/02/20 06:51:59;;;;;;;;;;;3.80;99.90;;;;;;5071515;28;19951;-75
2022/02/20 06:54:28;;;;;;;;;;;3.80;99.90;;;;;;5073134;28;20047;-75
2022/02/20 06:56:56;;;;;;;;;;;3.80;99.90;;;;;;5066470;28;19916;-75
2022/02/20 06:59:22;;;;;;;;;;;3.80;99.90;;;;;;5072814;28;20450;-76
2022/02/20 07:01:48;;;;;;;;;;;3.80;99.90;;;;;;5073210;28;19939;-76
2022/02/20 07:04:15;;;;;;;;;;;3.90;99.90;;;;;;5072966;28;20278;-75
2022/02/20 07:06:42;;;;;;;;;;;3.90;99.90;;;;;;5071807;28;19948;-76
2022/02/20 07:09:09;;;;;;;;;;;3.90;99.90;;;;;;5072782;28;20381;-76
2022/02/20 07:11:36;;;;;;;;;;;4.00;99.90;;;;;;5072538;28;19916;-76
2022/02/20 07:14:01;;;;;;;;;;;4.00;99.90;;;;;;5071668;28;19961;-74
2022/02/20 07:16:27;;;;;;;;;;;4.00;99.90;;;;;;5072977;28;19916;-76
2022/02/20 07:18:53;;;;;;;;;;;4.00;99.90;;;;;;5071748;28;20272;-76
2022/02/20 07:21:19;;;;;;;;;;;4.10;99.90;;;;;;5078132;28;19908;-76
2022/02/20 07:23:44;;;;;;;;;;;4.10;99.90;;;;;;5073430;28;20325;-76
2022/02/20 07:26:10;;;;;;;;;;;4.10;99.90;;;;;;5072981;28;19908;-74
2022/02/20 07:28:35;;;;;;;;;;;4.20;99.90;;;;;;5073054;28;19909;-76
2022/02/20 07:31:01;;;;;;;;;;;4.20;99.90;;;;;;5071599;28;19916;-76
2022/02/20 07:33:26;;;;;;;;;;;4.20;99.90;;;;;;5071128;28;20011;-76
2022/02/20 07:35:51;;;;;;;;;;;4.20;99.90;;;;;;5072726;28;19947;-76
2022/02/20 07:38:17;;;;;;;;;;;4.40;99.90;;;;;;5071262;28;19934;-76
2022/02/20 07:40:42;;;;;;;;;;;4.40;99.90;;;;;;5072470;28;19915;-76
2022/02/20 07:43:08;;;;;;;;;;;4.40;99.90;;;;;;5072187;28;19908;-74
2022/02/20 07:45:33;;;;;;;;;;;4.50;99.90;;;;;;5072465;28;20412;-76
2022/02/20 07:48:00;;;;;;;;;;;4.50;99.90;;;;;;5072259;28;19919;-76
2022/02/20 07:50:27;;;;;;;;;;;4.50;99.90;;;;;;5070128;28;19913;-76
2022/02/20 07:52:53;;;;;;;;;;;4.60;99.90;;;;;;5071580;28;20324;-74
2022/02/20 07:55:18;;;;;;;;;;;4.70;99.90;;;;;;5071899;28;19915;-74
2022/02/20 07:57:44;;;;;;;;;;;4.80;99.90;;;;;;5072131;28;20504;-76
2022/02/20 08:00:11;;;;;;;;;;;4.90;99.90;;;;;;5072191;28;19954;-77
2022/02/20 08:02:36;;;;;;;;;;;5.00;99.90;;;;;;5071834;28;19909;-76
2022/02/20 08:05:02;;;;;;;;;;;5.00;99.90;;;;;;5071933;28;19909;-74
2022/02/20 08:07:27;;;;;;;;;;;5.10;99.90;;;;;;5072024;28;20321;-74
2022/02/20 08:09:53;;;;;;;;;;;5.40;99.90;;;;;;5072009;28;20285;-74
2022/02/20 08:12:18;;;;;;;;;;;5.40;99.90;;;;;;5071739;28;19913;-76
2022/02/20 08:14:44;;;;;;;;;;;5.50;99.90;;;;;;5071616;28;19909;-74
2022/02/20 08:17:10;;;;;;;;;;;5.70;99.90;;;;;;5071597;28;19917;-74
2022/02/20 08:19:35;;;;;;;;;;;5.90;99.90;;;;;;5071722;28;19952;-75
2022/02/20 08:22:01;;;;;;;;;;;6.00;99.90;;;;;;5071362;28;20324;-74
2022/02/20 08:24:27;;;;;;;;;;;6.00;99.90;;;;;;5072786;28;20361;-74
2022/02/20 08:26:52;;;;;;;;;;;5.90;99.90;;;;;;5071629;28;19986;-75
2022/02/20 08:29:21;;;;;;;;;;;6.10;99.90;;;;;;5068338;28;19962;-75
2022/02/20 08:31:50;;;;;;;;;;;6.20;99.90;;;;;;5064252;28;20269;-75
2022/02/20 08:34:15;;;;;;;;;;;6.10;99.90;;;;;;5070333;28;20250;-75
2022/02/20 08:36:41;;;;;;;;;;;6.30;99.90;;;;;;5071475;28;19919;-75
2022/02/20 08:39:07;;;;;;;;;;;6.40;99.90;;;;;;5071321;28;19908;-75
2022/02/20 08:41:35;;;;;;;;;;;6.70;99.90;;;;;;5070082;28;20007;-75
2022/02/20 08:44:00;;;;;;;;;;;7.30;99.90;;;;;;5069588;28;20272;-75
2022/02/20 08:46:26;;;;;;;;;;;7.60;99.90;;;;;;5071388;28;19915;-75
2022/02/20 08:48:51;;;;;;;;;;;7.60;99.90;;;;;;5070074;28;19939;-75
2022/02/20 08:51:17;;;;;;;;;;;7.60;99.90;;;;;;5070896;28;19963;-75
2022/02/20 08:53:42;;;;;;;;;;;8.50;99.90;;;;;;5071185;28;19909;-75
2022/02/20 08:56:08;;;;;;;;;;;9.20;97.30;;;;;;5071718;28;19948;-76
2022/02/20 08:58:34;;;;;;;;;;;10.10;95.70;;;;;;5071511;28;19915;-75
2022/02/20 09:01:02;;;;;;;;;;;10.20;95.20;;;;;;5071518;28;20255;-75
2022/02/20 09:03:28;;;;;;;;;;;8.80;96.30;;;;;;5071158;28;19908;-75
2022/02/20 09:05:53;;;;;;;;;;;8.10;97.90;;;;;;5070033;28;20357;-75
2022/02/20 09:08:19;;;;;;;;;;;7.50;99.00;;;;;;5070047;28;19917;-75
2022/02/20 09:10:45;;;;;;;;;;;7.10;99.50;;;;;;5067712;28;19920;-75
2022/02/20 09:13:11;;;;;;;;;;;7.20;99.90;;;;;;5070426;28;19920;-76
2022/02/20 09:15:36;;;;;;;;;;;7.10;99.90;;;;;;5070977;28;19986;-75
2022/02/20 09:18:04;;;;;;;;;;;6.80;99.90;;;;;;5069247;28;19912;-75
2022/02/20 09:20:30;;;;;;;;;;;6.80;99.90;;;;;;5068076;28;19913;-75
2022/02/20 09:22:55;;;;;;;;;;;6.70;99.90;;;;;;5070230;28;19909;-75
2022/02/20 09:25:21;;;;;;;;;;;6.50;99.90;;;;;;5070522;28;19992;-75
2022/02/20 09:27:46;;;;;;;;;;;6.70;99.90;;;;;;5072045;28;20288;-75
2022/02/20 09:30:12;;;;;;;;;;;6.70;99.90;;;;;;5070798;28;19955;-75
2022/02/20 09:32:38;;;;;;;;;;;6.60;99.90;;;;;;5070885;28;19913;-75
2022/02/20 09:35:03;;;;;;;;;;;6.60;99.90;;;;;;5070458;28;19912;-75
2022/02/20 09:37:29;;;;;;;;;;;6.60;99.90;;;;;;5070160;28;19951;-75
2022/02/20 09:39:55;;;;;;;;;;;6.70;99.90;;;;;;5070682;28;19935;-75
2022/02/20 09:42:21;;;;;;;;;;;6.80;99.90;;;;;;5070544;28;19995;-75
2022/02/20 09:44:46;;;;;;;;;;;6.80;99.90;;;;;;5070380;28;19908;-75
2022/02/20 09:47:12;;;;;;;;;;;6.80;99.90;;;;;;5070548;28;20342;-75
2022/02/20 09:49:38;;;;;;;;;;;6.90;99.90;;;;;;5064190;28;19913;-75
2022/02/20 09:52:03;;;;;;;;;;;7.00;99.90;;;;;;5067838;28;20002;-76
2022/02/20 09:54:29;;;;;;;;;;;7.10;99.90;;;;;;5070396;28;19908;-75
2022/02/20 09:56:55;;;;;;;;;;;7.30;99.90;;;;;;5069471;28;19923;-75
2022/02/20 09:59:20;;;;;;;;;;;7.40;99.90;;;;;;5065003;28;19978;-75
2022/02/20 10:02:05;;;;;;;;;;;7.50;99.90;;;;;;5065650;28;19954;-75
2022/02/20 10:04:36;;;;;;;;;;;7.30;99.90;;;;;;5072616;28;19915;-75
2022/02/20 10:07:02;;;;;;;;;;;7.30;99.90;;;;;;5074469;28;20372;-75
2022/02/20 10:09:27;;;;;;;;;;;7.30;99.90;;;;;;5074535;28;19908;-75
2022/02/20 10:11:55;;;;;;;;;;;7.50;99.90;;;;;;5074317;28;19916;-75
2022/02/20 10:14:21;;;;;;;;;;;7.60;99.90;;;;;;5074473;28;19916;-75
2022/02/20 10:16:47;;;;;;;;;;;7.60;99.50;;;;;;5076801;28;19923;-75
2022/02/20 10:19:12;;;;;;;;;;;7.70;99.70;;;;;;5074886;28;19900;-75
2022/02/20 10:21:39;;;;;;;;;;;7.90;99.60;;;;;;5073109;28;19915;-76
2022/02/20 10:24:05;;;;;;;;;;;7.90;99.90;;;;;;5073847;28;20276;-75
2022/02/20 10:26:39;;;;;;;;;;;7.70;99.90;;;;;;5071073;28;21372;-75
2022/02/20 10:29:11;;;;;;;;;;;7.70;99.90;;;;;;5068806;28;19908;-75
2022/02/20 10:31:41;;;;;;;;;;;7.80;99.70;;;;;;5073911;28;20007;-75
2022/02/20 10:34:11;;;;;;;;;;;8.00;99.80;;;;;;5073736;28;19962;-75
2022/02/20 10:36:47;;;;;;;;;;;8.30;99.60;;;;;;5074036;28;19909;-75
2022/02/20 10:39:16;;;;;;;;;;;8.30;99.10;;;;;;5073852;28;19915;-76
2022/02/20 10:41:41;;;;;;;;;;;8.00;99.30;;;;;;5073682;28;19917;-75
2022/02/20 10:44:07;;;;;;;;;;;7.90;99.50;;;;;;5073268;28;19912;-75
2022/02/20 10:46:32;;;;;;;;;;;7.80;99.50;;;;;;5072550;28;20324;-75
2022/02/20 10:48:58;;;;;;;;;;;7.80;99.50;;;;;;5073792;28;19912;-75
2022/02/20 10:51:24;;;;;;;;;;;7.80;99.50;;;;;;5073501;28;19916;-75
2022/02/20 10:53:50;;;;;;;;;;;8.00;99.10;;;;;;5073440;28;20510;-75
2022/02/20 10:56:16;;;;;;;;;;;8.40;99.10;;;;;;5070757;28;19909;-74
2022/02/20 10:58:44;;;;;;;;;;;8.50;98.40;;;;;;5074155;28;19908;-74
2022/02/20 11:01:23;;;;;;;;;;;8.40;98.50;;;;;;5072217;28;19913;-74
2022/02/20 11:03:48;;;;;;;;;;;8.40;98.80;;;;;;5073144;28;19909;-74
2022/02/20 11:06:14;;;;;;;;;;;8.50;98.60;;;;;;5072878;28;20278;-75
2022/02/20 11:08:39;;;;;;;;;;;8.20;99.00;;;;;;5072145;28;20369;-74
2022/02/20 11:11:36;;;;;;;;;;;8.30;99.00;;;;;;5072281;28;19920;-74
2022/02/20 11:13:51;;;;;;;;;;;8.50;98.60;;;;;;5066740;28;19928;-74
2022/02/20 11:16:17;;;;;;;;;;;8.30;98.90;;;;;;5072860;28;19916;-74
2022/02/20 11:18:43;;;;;;;;;;;8.40;98.50;;;;;;5073066;28;19908;-74
2022/02/20 11:21:09;;;;;;;;;;;8.40;98.40;;;;;;5073111;28;19915;-74
2022/02/20 11:23:34;;;;;;;;;;;8.70;98.40;;;;;;5073499;28;19947;-74
2022/02/20 11:26:03;;;;;;;;;;;9.00;98.10;;;;;;5073055;28;19912;-75
2022/02/20 11:28:29;;;;;;;;;;;9.30;97.40;;;;;;5073601;28;20291;-73
2022/02/20 11:30:54;;;;;;;;;;;9.30;97.50;;;;;;5073187;28;19908;-74
2022/02/20 11:33:20;;;;;;;;;;;9.00;97.50;;;;;;5072977;28;19909;-75
2022/02/20 11:35:48;;;;;;;;;;;8.90;97.50;;;;;;5073246;28;19947;-74
2022/02/20 11:38:15;;;;;;;;;;;8.80;97.70;;;;;;5072806;28;20385;-75
2022/02/20 11:40:54;;;;;;;;;;;8.70;97.70;;;;;;5073102;28;19991;-74
2022/02/20 11:43:21;;;;;;;;;;;8.90;98.30;;;;;;5072622;28;19955;-75
2022/02/20 11:46:02;;;;;;;;;;;8.70;97.90;;;;;;5073034;28;20388;-74
2022/02/20 11:48:27;;;;;;;;;;;8.80;98.10;;;;;;5067251;28;19962;-74
2022/02/20 11:50:53;;;;;;;;;;;8.90;98.00;;;;;;5072523;28;19908;-75
2022/02/20 11:53:25;;;;;;;;;;;8.70;97.60;;;;;;5072513;28;19970;-74
2022/02/20 11:56:01;;;;;;;;;;;8.60;97.80;;;;;;5072407;28;19919;-74
2022/02/20 11:58:26;;;;;;;;;;;8.40;98.00;;;;;;5071467;28;19908;-75
2022/02/20 12:00:54;;;;;;;;;;;8.60;98.10;;;;;;5072615;28;19908;-74
2022/02/20 12:03:20;;;;;;;;;;;8.60;98.00;;;;;;5072054;28;20177;-74
2022/02/20 12:06:05;;;;;;;;;;;8.60;97.80;;;;;;5072172;28;19909;-75
2022/02/20 12:08:31;;;;;;;;;;;8.60;98.00;;;;;;5072084;28;20627;-75
2022/02/20 12:11:10;;;;;;;;;;;8.60;98.10;;;;;;5072015;28;19909;-74
2022/02/20 12:13:43;;;;;;;;;;;8.60;97.60;;;;;;5071528;28;19908;-74
2022/02/20 12:16:22;;;;;;;;;;;8.50;98.10;;;;;;5071851;28;19968;-75
2022/02/20 12:19:06;;;;;;;;;;;8.50;97.80;;;;;;5066318;28;19909;-74
2022/02/20 12:21:32;;;;;;;;;;;8.50;97.80;;;;;;5071797;28;19913;-75
2022/02/20 12:24:12;;;;;;;;;;;8.70;98.10;;;;;;5071539;28;19909;-75
2022/02/20 12:26:41;;;;;;;;;;;8.60;97.70;;;;;;5071398;28;19932;-75
2022/02/20 12:29:13;;;;;;;;;;;8.50;98.20;;;;;;5070377;28;19912;-74
2022/02/20 12:31:57;;;;;;;;;;;8.40;97.80;;;;;;5071516;28;19912;-76
2022/02/20 12:34:41;;;;;;;;;;;8.40;97.90;;;;;;5066390;28;19908;-74
2022/02/20 12:37:06;;;;;;;;;;;8.40;98.10;;;;;;5071538;28;19908;-74
2022/02/20 12:39:32;;;;;;;;;;;8.40;98.00;;;;;;5071574;28;20406;-74
2022/02/20 12:42:01;;;;;;;;;;;8.50;97.90;;;;;;5071311;28;19908;-74
2022/02/20 12:44:27;;;;;;;;;;;8.50;97.80;;;;;;5071354;28;19908;-74
2022/02/20 12:46:52;;;;;;;;;;;8.50;97.80;;;;;;5071255;28;19909;-74
2022/02/20 12:49:18;;;;;;;;;;;8.70;98.10;;;;;;5071269;28;20395;-75
2022/02/20 12:51:44;;;;;;;;;;;8.60;97.80;;;;;;5069993;28;19916;-75
2022/02/20 12:54:09;;;;;;;;;;;8.60;97.90;;;;;;5071224;28;19939;-74
2022/02/20 12:56:35;;;;;;;;;;;8.70;98.00;;;;;;5076540;28;20109;-75
2022/02/20 12:59:04;;;;;;;;;;;8.90;98.10;;;;;;5071114;28;20422;-75
2022/02/20 13:01:29;;;;;;;;;;;9.10;98.10;;;;;;5071170;28;19908;-74
2022/02/20 13:03:55;;;;;;;;;;;9.00;97.70;;;;;;5069782;28;19919;-74
2022/02/20 13:06:33;;;;;;;;;;;9.00;97.60;;;;;;5071317;28;20292;-74
2022/02/20 13:08:58;;;;;;;;;;;9.00;97.80;;;;;;5072390;28;19913;-75
2022/02/20 13:11:24;;;;;;;;;;;8.80;97.90;;;;;;5070987;28;20388;-76
2022/02/20 13:13:50;;;;;;;;;;;8.80;98.00;;;;;;5070977;28;19912;-75
2022/02/20 13:16:17;;;;;;;;;;;9.00;98.00;;;;;;5069887;28;19917;-74
2022/02/20 13:18:43;;;;;;;;;;;9.00;97.60;;;;;;5071041;28;19908;-75
2022/02/20 13:21:15;;;;;;;;;;;8.90;98.10;;;;;;5070949;28;19959;-75
2022/02/20 13:23:45;;;;;;;;;;;8.90;98.00;;;;;;5070830;28;20401;-74
2022/02/20 13:26:11;;;;;;;;;;;8.90;97.80;;;;;;5070444;28;19908;-76
2022/02/20 13:28:47;;;;;;;;;;;9.00;98.10;;;;;;5070464;28;20377;-74
2022/02/20 13:31:26;;;;;;;;;;;8.90;97.90;;;;;;5073136;28;19924;-75
2022/02/20 13:33:55;;;;;;;;;;;9.10;98.10;;;;;;5072861;28;19913;-74
2022/02/20 13:36:22;;;;;;;;;;;9.10;97.90;;;;;;5074950;28;20419;-74
2022/02/20 13:38:49;;;;;;;;;;;9.00;98.10;;;;;;5074978;28;19913;-74
2022/02/20 13:41:16;;;;;;;;;;;9.10;98.30;;;;;;5074609;28;19943;-74
2022/02/20 13:43:41;;;;;;;;;;;8.80;97.80;;;;;;5074899;28;19955;-75
2022/02/20 13:46:07;;;;;;;;;;;8.90;98.50;;;;;;5074852;28;19948;-75
2022/02/20 13:48:34;;;;;;;;;;;8.90;98.20;;;;;;5073434;28;19909;-76
2022/02/20 13:51:08;;;;;;;;;;;8.90;98.40;;;;;;5076057;28;20381;-74
2022/02/20 13:53:45;;;;;;;;;;;8.70;98.30;;;;;;5076681;28;20383;-74
2022/02/20 13:56:12;;;;;;;;;;;8.70;98.70;;;;;;5069581;28;20265;-75
2022/02/20 13:58:40;;;;;;;;;;;8.70;98.60;;;;;;5076383;28;20006;-74
2022/02/20 14:01:06;;;;;;;;;;;8.50;98.90;;;;;;5074457;28;20385;-74
2022/02/20 14:03:34;;;;;;;;;;;8.60;99.10;;;;;;5074154;28;19908;-74
2022/02/20 14:06:00;;;;;;;;;;;8.50;98.90;;;;;;5074405;28;19916;-74
2022/02/20 14:08:25;;;;;;;;;;;8.40;99.40;;;;;;5074191;28;19909;-76
2022/02/20 14:11:00;;;;;;;;;;;8.40;99.20;;;;;;5074111;28;19912;-74
2022/02/20 14:13:31;;;;;;;;;;;8.50;99.50;;;;;;5073928;28;19995;-75
2022/02/20 14:15:58;;;;;;;;;;;8.50;99.60;;;;;;5074150;28;19961;-74
2022/02/20 14:18:24;;;;;;;;;;;8.40;99.50;;;;;;5072866;28;20347;-75
2022/02/20 14:20:51;;;;;;;;;;;8.30;99.70;;;;;;5073986;28;19991;-75
2022/02/20 14:23:18;;;;;;;;;;;8.30;99.90;;;;;;5073735;28;19915;-74
2022/02/20 14:25:46;;;;;;;;;;;8.40;99.90;;;;;;5072475;28;19909;-76
2022/02/20 14:28:19;;;;;;;;;;;8.50;99.70;;;;;;5078080;28;19908;-74